createdAt,value
2022-11-17T00:02:30.539Z,20.96
2022-11-17T00:08:54.953Z,20.90
2022-11-17T00:15:19.330Z,20.84
2022-11-17T00:21:46.443Z,20.78
2022-11-17T00:28:10.869Z,20.72
2022-11-17T00:34:35.266Z,20.67
2022-11-17T00:40:59.704Z,20.61
2022-11-17T00:47:24.147Z,20.56
2022-11-17T00:53:48.506Z,20.51
2022-11-17T01:00:12.884Z,20.45
2022-11-17T01:06:37.473Z,20.40
2022-11-17T01:13:01.818Z,20.35
2022-11-17T01:19:26.118Z,20.31
2022-11-17T01:25:50.599Z,20.26
2022-11-17T01:32:17.650Z,20.21
2022-11-17T01:38:42.022Z,20.15
2022-11-17T01:45:17.136Z,20.11
2022-11-17T01:51:41.447Z,20.06
2022-11-17T01:58:08.641Z,20.02
2022-11-17T02:04:33.015Z,19.97
2022-11-17T02:10:57.341Z,19.93
2022-11-17T02:17:21.786Z,19.89
2022-11-17T02:23:54.922Z,19.85
2022-11-17T02:30:31.151Z,19.81
2022-11-17T02:36:58.191Z,19.77
2022-11-17T02:43:20.876Z,19.72
2022-11-17T02:49:54.879Z,19.69
2022-11-17T02:56:19.146Z,19.65
2022-11-17T03:02:43.592Z,19.62
2022-11-17T03:09:25.731Z,19.58
2022-11-17T03:15:55.774Z,19.54
2022-11-17T03:22:32.175Z,19.51
2022-11-17T03:28:56.619Z,19.47
2022-11-17T03:35:20.892Z,19.44
2022-11-17T03:41:45.207Z,19.40
2022-11-17T03:48:09.721Z,19.37
2022-11-17T03:54:34.032Z,19.34
2022-11-17T04:01:04.789Z,19.31
2022-11-17T04:07:29.174Z,19.28
2022-11-17T04:13:52.128Z,19.24
2022-11-17T04:20:16.453Z,19.22
2022-11-17T04:26:39.476Z,19.19
2022-11-17T04:33:03.870Z,19.15
2022-11-17T04:39:28.176Z,19.13
2022-11-17T04:45:52.508Z,19.10
2022-11-17T04:52:16.796Z,19.07
2022-11-17T04:58:41.543Z,19.04
2022-11-17T05:05:17.925Z,19.01
2022-11-17T05:11:40.616Z,18.98
2022-11-17T05:18:05.047Z,18.95
2022-11-17T05:24:29.395Z,18.93
2022-11-17T05:30:53.727Z,18.90
2022-11-17T05:37:17.996Z,18.88
2022-11-17T05:43:42.371Z,18.88
2022-11-17T05:50:06.643Z,18.91
2022-11-17T05:56:30.937Z,18.99
2022-11-17T06:03:04.412Z,19.12
2022-11-17T06:09:28.942Z,19.28
2022-11-17T06:15:53.214Z,19.44
2022-11-17T06:22:17.550Z,19.61
2022-11-17T06:28:41.825Z,19.75
2022-11-17T06:34:58.688Z,19.88
2022-11-17T06:41:23.137Z,20.01
2022-11-17T06:47:47.569Z,20.13
2022-11-17T06:54:12.141Z,20.25
2022-11-17T07:00:36.441Z,20.37
2022-11-17T07:07:00.748Z,20.46
2022-11-17T07:13:25.142Z,20.55
2022-11-17T07:19:49.481Z,20.64
2022-11-17T07:26:13.778Z,20.73
2022-11-17T07:32:38.055Z,20.82
2022-11-17T07:39:02.365Z,20.88
2022-11-17T07:45:31.648Z,20.93
2022-11-17T07:51:56.661Z,20.98
2022-11-17T07:58:21.123Z,21.03
2022-11-17T08:04:45.659Z,21.07
2022-11-17T08:11:10.095Z,21.10
2022-11-17T08:17:29.604Z,21.14
2022-11-17T08:23:53.927Z,21.18
2022-11-17T08:30:18.334Z,21.22
2022-11-17T08:36:42.790Z,21.27
2022-11-17T08:43:07.263Z,21.31
2022-11-17T08:49:31.640Z,21.37
2022-11-17T08:55:56.090Z,21.42
2022-11-17T09:02:20.389Z,21.47
2022-11-17T09:08:46.634Z,21.53
2022-11-17T09:15:11.662Z,21.58
2022-11-17T09:21:36.068Z,21.61
2022-11-17T09:28:00.396Z,21.64
2022-11-17T09:34:18.618Z,21.68
2022-11-17T09:40:42.983Z,21.69
2022-11-17T09:47:12.943Z,21.71
2022-11-17T09:53:55.788Z,21.72
2022-11-17T10:00:20.061Z,21.71
2022-11-17T10:06:44.375Z,21.72
2022-11-17T10:13:08.687Z,21.75
2022-11-17T10:19:33.028Z,21.78
2022-11-17T10:26:03.073Z,21.81
2022-11-17T10:32:27.476Z,21.85
2022-11-17T10:38:54.754Z,21.90
2022-11-17T10:45:25.011Z,21.95
2022-11-17T10:51:58.423Z,21.99
2022-11-17T10:58:22.730Z,22.02
2022-11-17T11:04:47.156Z,22.05
2022-11-17T11:11:14.344Z,22.10
2022-11-17T11:17:38.635Z,22.13
2022-11-17T11:24:15.264Z,22.16
2022-11-17T11:30:52.148Z,22.19
2022-11-17T11:37:20.762Z,22.20
2022-11-17T11:44:03.387Z,22.21
2022-11-17T11:50:41.637Z,22.21
2022-11-17T11:57:18.072Z,22.20
2022-11-17T12:03:45.131Z,22.19
2022-11-17T12:10:21.305Z,22.18
2022-11-17T12:16:50.596Z,22.17
2022-11-17T12:23:14.867Z,22.18
2022-11-17T12:30:00.543Z,22.19
2022-11-17T12:36:31.197Z,22.22
2022-11-17T12:43:04.715Z,22.24
2022-11-17T12:49:31.913Z,22.25
2022-11-17T12:56:13.629Z,22.25
2022-11-17T13:02:40.881Z,22.27
2022-11-17T13:09:17.400Z,22.28
2022-11-17T13:15:41.812Z,22.31
2022-11-17T13:22:06.226Z,22.32
2022-11-17T13:28:30.616Z,22.35
2022-11-17T13:35:04.105Z,22.38
2022-11-17T13:41:28.417Z,22.45
2022-11-17T13:47:58.283Z,22.47
2022-11-17T13:54:22.719Z,22.48
2022-11-17T14:00:47.480Z,22.47
2022-11-17T14:07:11.876Z,22.47
2022-11-17T14:13:40.537Z,22.47
2022-11-17T14:20:05.060Z,22.48
2022-11-17T14:26:29.620Z,22.49
2022-11-17T14:32:56.000Z,22.52
2022-11-17T14:39:22.611Z,22.51
2022-11-17T14:45:47.165Z,22.50
2022-11-17T14:52:10.445Z,22.51
2022-11-17T14:58:34.869Z,22.53
2022-11-17T15:04:59.629Z,22.59
2022-11-17T15:11:24.474Z,22.61
2022-11-17T15:17:48.859Z,22.56
2022-11-17T15:24:13.682Z,22.48
2022-11-17T15:30:38.251Z,22.41
2022-11-17T15:37:02.648Z,22.39
2022-11-17T15:43:27.086Z,22.39
2022-11-17T15:49:51.563Z,22.38
2022-11-17T15:56:15.875Z,22.34
2022-11-17T16:02:40.204Z,22.31
2022-11-17T16:09:04.524Z,22.28
2022-11-17T16:15:28.917Z,22.30
2022-11-17T16:21:53.262Z,22.38
2022-11-17T16:28:17.235Z,22.48
2022-11-17T16:34:41.535Z,22.59
2022-11-17T16:41:06.150Z,22.69
2022-11-17T16:47:30.441Z,22.77
2022-11-17T16:53:54.882Z,22.85
2022-11-17T17:00:19.239Z,22.93
2022-11-17T17:06:43.819Z,23.01
2022-11-17T17:13:08.316Z,23.08
2022-11-17T17:19:35.352Z,23.15
2022-11-17T17:25:59.729Z,23.21
2022-11-17T17:32:24.029Z,23.28
2022-11-17T17:38:54.631Z,23.34
2022-11-17T17:45:19.634Z,23.37
2022-11-17T17:51:46.820Z,23.36
2022-11-17T17:58:11.091Z,23.32
2022-11-17T18:04:35.397Z,23.25
2022-11-17T18:10:59.816Z,23.17
2022-11-17T18:17:24.153Z,23.08
2022-11-17T18:23:48.472Z,22.99
2022-11-17T18:30:12.946Z,22.91
2022-11-17T18:36:31.139Z,22.82
2022-11-17T18:42:53.904Z,22.74
2022-11-17T18:49:13.696Z,22.65
2022-11-17T18:55:38.332Z,22.56
2022-11-17T19:02:08.705Z,22.46
2022-11-17T19:08:25.969Z,22.39
2022-11-17T19:14:50.332Z,22.36
2022-11-17T19:21:14.640Z,22.39
2022-11-17T19:27:39.080Z,22.46
2022-11-17T19:34:03.490Z,22.53
2022-11-17T19:40:27.788Z,22.62
2022-11-17T19:46:52.092Z,22.70
2022-11-17T19:53:16.496Z,22.78
2022-11-17T19:59:40.782Z,22.86
2022-11-17T20:06:05.240Z,22.93
2022-11-17T20:12:28.253Z,22.99
2022-11-17T20:18:53.557Z,23.06
2022-11-17T20:25:17.843Z,23.12
2022-11-17T20:31:47.910Z,23.18
2022-11-17T20:38:15.656Z,23.24
2022-11-17T20:44:46.401Z,23.30
2022-11-17T20:50:59.519Z,23.36
2022-11-17T20:57:23.849Z,23.40
2022-11-17T21:03:48.218Z,23.41
2022-11-17T21:10:12.530Z,23.40
2022-11-17T21:16:48.871Z,23.35
2022-11-17T21:23:13.244Z,23.30
2022-11-17T21:29:37.673Z,23.25
2022-11-17T21:36:01.979Z,23.19
2022-11-17T21:42:13.155Z,23.12
2022-11-17T21:48:37.470Z,23.05
2022-11-17T21:55:01.898Z,22.97
2022-11-17T22:01:26.504Z,22.87
2022-11-17T22:07:50.916Z,22.76
2022-11-17T22:14:15.209Z,22.66
2022-11-17T22:20:39.665Z,22.54
2022-11-17T22:27:03.957Z,22.43
2022-11-17T22:33:28.395Z,22.34
2022-11-17T22:39:52.701Z,22.23
2022-11-17T22:46:17.026Z,22.13
2022-11-17T22:52:41.304Z,22.03
2022-11-17T22:58:59.981Z,21.93
2022-11-17T23:05:24.543Z,21.82
2022-11-17T23:11:48.819Z,21.72
2022-11-17T23:18:13.242Z,21.62
2022-11-17T23:24:37.633Z,21.53
2022-11-17T23:31:02.082Z,21.44
2022-11-17T23:37:26.795Z,21.36
2022-11-17T23:43:51.065Z,21.28
2022-11-17T23:50:15.452Z,21.20
2022-11-17T23:56:32.410Z,21.11
